createdAt,value
2022-08-12T00:01:14.141Z,12.00
2022-08-12T00:04:07.920Z,12.10
2022-08-12T00:06:59.653Z,12.10
2022-08-12T00:09:50.967Z,12.10
2022-08-12T00:12:42.314Z,12.10
2022-08-12T00:15:36.743Z,12.20
2022-08-12T00:18:27.753Z,12.20
2022-08-12T00:21:19.510Z,12.20
2022-08-12T00:24:10.750Z,12.20
2022-08-12T00:27:06.110Z,12.20
2022-08-12T00:29:57.033Z,12.30
2022-08-12T00:32:56.697Z,12.30
2022-08-12T00:35:48.393Z,12.30
2022-08-12T00:38:40.019Z,12.30
2022-08-12T00:41:32.027Z,12.30
2022-08-12T00:44:07.878Z,12.40
2022-08-12T00:46:50.620Z,12.40
2022-08-12T00:49:27.058Z,12.40
2022-08-12T00:52:09.813Z,12.40
2022-08-12T00:54:44.457Z,12.40
2022-08-12T00:57:20.322Z,12.40
2022-08-12T00:59:55.680Z,12.40
2022-08-12T01:02:31.871Z,12.50
2022-08-12T01:05:27.114Z,12.50
2022-08-12T01:08:18.605Z,12.50
2022-08-12T01:11:10.669Z,12.50
2022-08-12T01:13:48.747Z,12.50
2022-08-12T01:16:22.979Z,12.50
2022-08-12T01:18:58.490Z,12.50
2022-08-12T01:22:02.791Z,12.60
2022-08-12T01:24:50.465Z,12.60
2022-08-12T01:27:25.926Z,12.60
2022-08-12T01:30:01.053Z,12.60
2022-08-12T01:32:37.598Z,12.60
2022-08-12T01:35:13.405Z,12.60
2022-08-12T01:37:49.998Z,12.60
2022-08-12T01:40:34.981Z,12.70
2022-08-12T01:43:17.095Z,12.70
2022-08-12T01:46:01.353Z,12.70
2022-08-12T01:48:51.665Z,12.70
2022-08-12T01:52:15.583Z,12.70
2022-08-12T01:54:39.942Z,12.70
2022-08-12T01:57:57.942Z,12.70
2022-08-12T02:00:15.302Z,12.70
2022-08-12T02:02:54.560Z,12.70
2022-08-12T02:05:59.704Z,12.70
2022-08-12T02:09:00.966Z,12.60
2022-08-12T02:11:43.560Z,12.60
2022-08-12T02:14:36.366Z,12.50
2022-08-12T02:17:55.479Z,12.60
2022-08-12T02:20:52.014Z,12.60
2022-08-12T02:23:28.275Z,12.60
2022-08-12T02:26:06.848Z,12.60
2022-08-12T02:28:40.350Z,12.60
2022-08-12T02:31:16.147Z,12.60
2022-08-12T02:33:49.692Z,12.60
2022-08-12T02:36:23.843Z,12.60
2022-08-12T02:38:58.612Z,12.60
2022-08-12T02:41:36.825Z,12.60
2022-08-12T02:44:12.069Z,12.60
2022-08-12T02:46:50.425Z,12.60
2022-08-12T02:49:31.411Z,12.50
2022-08-12T02:52:05.829Z,12.50
2022-08-12T02:54:42.457Z,12.50
2022-08-12T02:57:20.897Z,12.50
2022-08-12T02:59:55.137Z,12.50
2022-08-12T03:02:32.667Z,12.50
2022-08-12T03:05:07.267Z,12.40
2022-08-12T03:07:59.151Z,12.40
2022-08-12T03:10:42.657Z,12.40
2022-08-12T03:13:22.219Z,12.40
2022-08-12T03:15:56.663Z,12.40
2022-08-12T03:18:33.023Z,12.40
2022-08-12T03:21:06.836Z,12.40
2022-08-12T03:23:42.695Z,12.40
2022-08-12T03:26:16.570Z,12.40
2022-08-12T03:28:52.100Z,12.40
2022-08-12T03:31:29.802Z,12.50
2022-08-12T03:34:07.706Z,12.40
2022-08-12T03:36:44.005Z,12.50
2022-08-12T03:39:36.463Z,12.40
2022-08-12T03:42:21.999Z,12.40
2022-08-12T03:45:30.969Z,12.40
2022-08-12T03:48:27.827Z,12.40
2022-08-12T03:51:21.600Z,12.40
2022-08-12T03:54:12.694Z,12.40
2022-08-12T03:57:03.483Z,12.40
2022-08-12T03:59:54.562Z,12.40
2022-08-12T04:02:28.465Z,12.40
2022-08-12T04:05:03.954Z,12.40
2022-08-12T04:07:38.998Z,12.40
2022-08-12T04:10:52.380Z,12.40
2022-08-12T04:13:25.717Z,12.40
2022-08-12T04:16:02.244Z,12.50
2022-08-12T04:18:36.193Z,12.50
2022-08-12T04:21:10.671Z,12.50
2022-08-12T04:23:48.501Z,12.50
2022-08-12T04:26:22.272Z,12.50
2022-08-12T04:28:57.456Z,12.50
2022-08-12T04:31:35.082Z,12.50
2022-08-12T04:34:09.862Z,12.50
2022-08-12T04:36:43.956Z,12.50
2022-08-12T04:39:19.657Z,12.60
2022-08-12T04:41:58.367Z,12.60
2022-08-12T04:44:33.571Z,12.60
2022-08-12T04:47:07.201Z,12.60
2022-08-12T04:49:41.552Z,12.70
2022-08-12T04:52:16.005Z,12.70
2022-08-12T04:54:51.239Z,12.70
2022-08-12T04:57:25.289Z,12.70
2022-08-12T04:59:58.714Z,12.70
2022-08-12T05:02:32.312Z,12.80
2022-08-12T05:05:08.672Z,12.80
2022-08-12T05:07:45.809Z,12.90
2022-08-12T05:10:33.538Z,12.90
2022-08-12T05:13:12.392Z,12.90
2022-08-12T05:16:00.247Z,12.90
2022-08-12T05:18:41.068Z,13.00
2022-08-12T05:21:19.660Z,13.10
2022-08-12T05:23:54.906Z,13.10
2022-08-12T05:26:30.635Z,13.20
2022-08-12T05:29:07.962Z,13.30
2022-08-12T05:31:58.309Z,13.30
2022-08-12T05:34:32.527Z,13.40
2022-08-12T05:37:06.098Z,13.50
2022-08-12T05:39:39.614Z,13.60
2022-08-12T05:42:14.511Z,13.70
2022-08-12T05:44:47.916Z,13.70
2022-08-12T05:47:21.303Z,13.80
2022-08-12T05:50:11.041Z,13.90
2022-08-12T05:52:48.159Z,13.90
2022-08-12T05:55:25.848Z,14.00
2022-08-12T05:58:03.045Z,14.10
2022-08-12T06:00:37.278Z,14.10
2022-08-12T06:03:11.139Z,14.10
2022-08-12T06:05:54.441Z,14.20
2022-08-12T06:08:28.907Z,14.30
2022-08-12T06:11:02.792Z,14.40
2022-08-12T06:13:53.761Z,14.50
2022-08-12T06:16:28.767Z,14.60
2022-08-12T06:19:02.359Z,14.70
2022-08-12T06:21:37.712Z,14.80
2022-08-12T06:24:15.245Z,14.90
2022-08-12T06:26:48.709Z,15.00
2022-08-12T06:30:07.225Z,15.10
2022-08-12T06:32:17.016Z,15.10
2022-08-12T06:35:26.810Z,15.10
2022-08-12T06:37:59.070Z,15.20
2022-08-12T06:40:49.807Z,15.30
2022-08-12T06:43:23.240Z,15.40
2022-08-12T06:45:59.231Z,15.50
2022-08-12T06:48:33.936Z,15.60
2022-08-12T06:51:08.718Z,15.60
2022-08-12T06:53:42.894Z,15.70
2022-08-12T06:56:16.730Z,15.80
2022-08-12T06:58:50.179Z,15.90
2022-08-12T07:01:25.037Z,16.00
2022-08-12T07:04:09.411Z,16.10
2022-08-12T07:06:52.041Z,16.10
2022-08-12T07:10:03.763Z,16.30
2022-08-12T07:12:20.043Z,16.40
2022-08-12T07:14:53.878Z,16.60
2022-08-12T07:17:37.960Z,16.70
2022-08-12T07:20:51.311Z,16.90
2022-08-12T07:23:07.332Z,17.10
2022-08-12T07:25:41.790Z,17.30
2022-08-12T07:28:17.514Z,17.50
2022-08-12T07:30:52.823Z,17.70
2022-08-12T07:33:29.840Z,18.00
2022-08-12T07:36:03.465Z,18.10
2022-08-12T07:38:40.122Z,18.30
2022-08-12T07:41:18.483Z,18.50
2022-08-12T07:43:54.847Z,18.70
2022-08-12T07:46:31.331Z,18.90
2022-08-12T07:49:08.197Z,19.10
2022-08-12T07:51:43.211Z,19.30
2022-08-12T07:54:16.954Z,19.60
2022-08-12T07:56:50.413Z,19.90
2022-08-12T07:59:26.786Z,20.10
2022-08-12T08:02:03.771Z,20.40
2022-08-12T08:04:56.130Z,20.60
2022-08-12T08:07:31.238Z,20.90
2022-08-12T08:10:09.779Z,21.20
2022-08-12T08:12:58.274Z,21.40
2022-08-12T08:16:01.302Z,21.60
2022-08-12T08:18:28.985Z,21.90
2022-08-12T08:21:05.952Z,22.10
2022-08-12T08:24:04.671Z,22.30
2022-08-12T08:26:38.784Z,22.50
2022-08-12T08:29:17.177Z,22.80
2022-08-12T08:31:55.996Z,23.00
2022-08-12T08:34:53.136Z,23.30
2022-08-12T08:37:28.744Z,23.50
2022-08-12T08:40:21.772Z,23.80
2022-08-12T08:42:55.216Z,24.10
2022-08-12T08:45:28.749Z,24.30
2022-08-12T08:48:02.462Z,24.60
2022-08-12T08:50:36.281Z,24.90
2022-08-12T08:53:12.534Z,25.10
2022-08-12T08:56:03.960Z,25.40
2022-08-12T08:58:39.197Z,25.60
2022-08-12T09:01:18.564Z,25.80
2022-08-12T09:05:07.504Z,26.10
2022-08-12T09:10:02.882Z,26.50
2022-08-12T09:12:54.920Z,26.70
2022-08-12T09:15:35.684Z,26.90
2022-08-12T09:18:11.253Z,27.00
2022-08-12T09:20:45.996Z,27.20
2022-08-12T09:24:00.174Z,27.50
2022-08-12T09:26:22.881Z,27.80
2022-08-12T09:29:02.527Z,28.10
2022-08-12T09:32:06.968Z,28.10
2022-08-12T09:34:43.525Z,28.30
2022-08-12T09:37:28.385Z,28.40
2022-08-12T09:40:57.468Z,28.60
2022-08-12T09:43:36.514Z,28.70
2022-08-12T09:46:20.113Z,29.00
2022-08-12T09:48:56.518Z,29.10
2022-08-12T09:51:38.272Z,29.30
2022-08-12T09:54:34.326Z,29.60
2022-08-12T09:58:50.355Z,29.80
2022-08-12T10:00:17.785Z,29.80
2022-08-12T10:03:05.612Z,29.80
2022-08-12T10:06:20.312Z,29.90
2022-08-12T10:08:37.000Z,29.90
2022-08-12T10:11:28.067Z,30.10
2022-08-12T10:14:21.570Z,30.30
2022-08-12T10:17:09.740Z,30.40
2022-08-12T10:19:51.963Z,30.40
2022-08-12T10:22:39.028Z,30.50
2022-08-12T10:26:33.824Z,30.60
2022-08-12T10:28:42.133Z,30.60
2022-08-12T10:32:20.151Z,30.50
2022-08-12T10:34:31.069Z,30.60
2022-08-12T10:37:21.005Z,30.40
2022-08-12T10:40:00.760Z,30.40
2022-08-12T10:43:00.542Z,30.50
2022-08-12T10:45:37.988Z,30.60
2022-08-12T10:48:20.985Z,30.60
2022-08-12T10:51:51.811Z,30.60
2022-08-12T10:54:00.633Z,30.70
2022-08-12T10:56:36.120Z,30.70
2022-08-12T10:59:11.647Z,30.80
2022-08-12T11:04:14.675Z,30.80
2022-08-12T11:04:45.287Z,30.80
2022-08-12T11:08:33.731Z,31.00
2022-08-12T11:10:19.526Z,31.10
2022-08-12T11:13:00.808Z,31.30
2022-08-12T11:16:03.779Z,31.60
2022-08-12T11:18:30.010Z,31.80
2022-08-12T11:21:05.819Z,32.00
2022-08-12T11:23:40.822Z,32.20
2022-08-12T11:26:14.425Z,32.20
2022-08-12T11:28:50.428Z,32.30
2022-08-12T11:31:56.059Z,32.40
2022-08-12T11:34:51.611Z,32.70
2022-08-12T11:37:28.589Z,32.90
2022-08-12T11:40:04.019Z,33.10
2022-08-12T11:42:45.929Z,33.00
2022-08-12T11:45:19.975Z,32.90
2022-08-12T11:47:55.542Z,32.80
2022-08-12T11:50:32.398Z,32.80
2022-08-12T11:53:06.148Z,32.80
2022-08-12T11:56:00.907Z,32.80
2022-08-12T12:00:22.118Z,32.60
2022-08-12T12:02:01.850Z,32.60
2022-08-12T12:04:29.179Z,32.40
2022-08-12T12:07:07.468Z,32.40
2022-08-12T12:09:52.221Z,32.40
2022-08-12T12:12:27.944Z,32.50
2022-08-12T12:15:06.831Z,32.60
2022-08-12T12:17:42.120Z,32.70
2022-08-12T12:20:16.282Z,32.70
2022-08-12T12:22:49.714Z,32.50
2022-08-12T12:26:07.551Z,32.40
2022-08-12T12:28:36.626Z,32.30
2022-08-12T12:31:14.827Z,32.10
2022-08-12T12:34:04.962Z,32.10
2022-08-12T12:36:38.366Z,32.10
2022-08-12T12:39:11.913Z,32.20
2022-08-12T12:42:43.379Z,32.20
2022-08-12T12:44:50.949Z,32.20
2022-08-12T12:47:29.196Z,32.20
2022-08-12T12:50:06.211Z,32.20
2022-08-12T12:52:39.864Z,32.10
2022-08-12T12:55:16.373Z,32.10
2022-08-12T12:58:00.503Z,32.10
2022-08-12T13:00:36.548Z,32.00
2022-08-12T13:03:18.970Z,31.90
2022-08-12T13:05:53.750Z,31.70
2022-08-12T13:08:36.026Z,31.60
2022-08-12T13:11:10.693Z,31.50
2022-08-12T13:14:07.026Z,31.50
2022-08-12T13:16:44.985Z,31.50
2022-08-12T13:19:25.459Z,31.30
2022-08-12T13:22:20.067Z,31.10
2022-08-12T13:24:56.308Z,31.10
2022-08-12T13:27:36.355Z,31.10
2022-08-12T13:30:13.125Z,31.10
2022-08-12T13:32:58.422Z,31.10
2022-08-12T13:36:06.244Z,31.10
2022-08-12T13:38:36.185Z,31.10
2022-08-12T13:41:18.194Z,31.10
2022-08-12T13:43:54.154Z,31.00
2022-08-12T13:46:27.674Z,31.00
2022-08-12T13:49:04.850Z,30.90
2022-08-12T13:51:40.754Z,30.60
2022-08-12T13:54:15.567Z,30.30
2022-08-12T13:56:50.093Z,30.20
2022-08-12T13:59:26.743Z,30.10
2022-08-12T14:02:00.232Z,29.90
2022-08-12T14:04:37.145Z,29.60
2022-08-12T14:07:10.612Z,29.40
2022-08-12T14:10:01.807Z,29.10
2022-08-12T14:12:37.423Z,29.00
2022-08-12T14:15:11.778Z,28.80
2022-08-12T14:17:45.240Z,28.80
2022-08-12T14:20:27.372Z,28.80
2022-08-12T14:23:16.598Z,28.70
2022-08-12T14:25:55.798Z,28.70
2022-08-12T14:28:32.062Z,28.60
2022-08-12T14:31:07.665Z,28.60
2022-08-12T14:33:52.857Z,28.50
2022-08-12T14:36:29.235Z,28.50
2022-08-12T14:39:06.545Z,28.50
2022-08-12T14:41:48.506Z,28.60
2022-08-12T14:44:59.657Z,28.60
2022-08-12T14:47:25.126Z,28.70
2022-08-12T14:50:41.494Z,28.80
2022-08-12T14:59:20.299Z,28.80
2022-08-12T15:01:55.693Z,28.80
2022-08-12T15:04:29.747Z,28.80
2022-08-12T15:07:03.111Z,28.70
2022-08-12T15:09:37.927Z,28.60
2022-08-12T15:12:13.702Z,28.60
2022-08-12T15:14:48.218Z,28.50
2022-08-12T15:17:37.487Z,28.30
2022-08-12T15:20:33.157Z,28.20
2022-08-12T15:23:06.243Z,28.00
2022-08-12T15:26:02.749Z,27.90
2022-08-12T15:28:37.542Z,27.90
2022-08-12T15:31:27.436Z,27.80
2022-08-12T15:34:01.525Z,27.70
2022-08-12T15:36:55.258Z,27.50
2022-08-12T15:39:29.381Z,27.30
2022-08-12T15:42:04.438Z,27.00
2022-08-12T15:44:43.066Z,26.90
2022-08-12T15:47:17.131Z,26.80
2022-08-12T15:50:01.326Z,26.70
2022-08-12T15:52:34.916Z,26.60
2022-08-12T15:55:14.175Z,26.50
2022-08-12T15:57:54.139Z,26.40
2022-08-12T16:00:32.911Z,26.20
2022-08-12T16:03:13.691Z,26.20
2022-08-12T16:06:19.040Z,26.10
2022-08-12T16:08:47.135Z,26.00
2022-08-12T16:11:21.912Z,26.00
2022-08-12T16:13:56.988Z,25.90
2022-08-12T16:16:35.550Z,25.70
2022-08-12T16:20:02.238Z,25.60
2022-08-12T16:22:03.783Z,25.50
2022-08-12T16:24:47.178Z,25.30
2022-08-12T16:27:25.705Z,25.20
2022-08-12T16:30:02.279Z,25.20
2022-08-12T16:32:35.947Z,25.20
2022-08-12T16:35:16.132Z,25.10
2022-08-12T16:38:28.055Z,25.00
2022-08-12T16:40:46.323Z,24.80
2022-08-12T16:43:25.430Z,24.70
2022-08-12T16:46:23.242Z,24.70
2022-08-12T16:48:56.736Z,24.60
2022-08-12T16:51:31.316Z,24.40
2022-08-12T16:54:14.046Z,24.30
2022-08-12T16:56:54.640Z,24.20
2022-08-12T16:59:53.468Z,24.10
2022-08-12T17:02:33.491Z,24.00
2022-08-12T17:05:15.012Z,23.90
2022-08-12T17:07:52.918Z,23.70
2022-08-12T17:10:35.918Z,23.60
2022-08-12T17:13:11.203Z,23.50
2022-08-12T17:15:57.307Z,23.50
2022-08-12T17:18:56.803Z,23.40
2022-08-12T17:21:40.045Z,23.20
2022-08-12T17:24:21.306Z,23.10
2022-08-12T17:26:59.387Z,22.90
2022-08-12T17:30:03.033Z,22.80
2022-08-12T17:32:31.368Z,22.70
2022-08-12T17:35:30.217Z,22.60
2022-08-12T17:38:13.735Z,22.40
2022-08-12T17:40:48.170Z,22.40
2022-08-12T17:43:57.587Z,22.30
2022-08-12T17:46:24.145Z,22.20
2022-08-12T17:49:19.246Z,22.10
2022-08-12T17:52:02.249Z,22.00
2022-08-12T17:54:37.782Z,21.90
2022-08-12T17:57:16.617Z,21.80
2022-08-12T17:59:51.595Z,21.70
2022-08-12T18:02:30.907Z,21.60
2022-08-12T18:05:10.077Z,21.50
2022-08-12T18:07:46.281Z,21.50
2022-08-12T18:10:36.204Z,21.40
2022-08-12T18:13:10.665Z,21.40
2022-08-12T18:16:04.125Z,21.30
2022-08-12T18:18:39.207Z,21.30
2022-08-12T18:21:15.637Z,21.10
2022-08-12T18:23:53.961Z,21.10
2022-08-12T18:26:29.671Z,21.00
2022-08-12T18:29:03.578Z,20.90
2022-08-12T18:31:44.517Z,20.80
2022-08-12T18:34:32.585Z,20.70
2022-08-12T18:37:26.702Z,20.60
2022-08-12T18:40:19.361Z,20.50
2022-08-12T18:42:54.400Z,20.50
2022-08-12T18:45:47.259Z,20.30
2022-08-12T18:48:26.946Z,20.20
2022-08-12T18:51:05.791Z,20.10
2022-08-12T18:54:06.479Z,19.90
2022-08-12T18:56:39.532Z,19.90
2022-08-12T18:59:59.756Z,19.80
2022-08-12T19:02:20.851Z,19.70
2022-08-12T19:04:57.433Z,19.70
2022-08-12T19:07:58.006Z,19.60
2022-08-12T19:10:24.530Z,19.50
2022-08-12T19:13:21.113Z,19.40
2022-08-12T19:16:01.360Z,19.30
2022-08-12T19:18:39.826Z,19.30
2022-08-12T19:21:16.604Z,19.20
2022-08-12T19:24:07.477Z,19.10
2022-08-12T19:26:42.505Z,19.10
2022-08-12T19:29:19.400Z,19.00
2022-08-12T19:31:57.857Z,18.90
2022-08-12T19:37:38.464Z,18.70
2022-08-12T19:40:32.466Z,18.70
2022-08-12T19:43:13.475Z,18.60
2022-08-12T19:45:57.159Z,18.50
2022-08-12T19:48:33.050Z,18.40
2022-08-12T19:51:09.197Z,18.40
2022-08-12T19:53:58.598Z,18.30
2022-08-12T19:56:32.465Z,18.30
2022-08-12T19:59:23.933Z,18.20
2022-08-12T20:02:03.106Z,18.20
2022-08-12T20:04:40.800Z,18.20
2022-08-12T20:07:23.350Z,18.10
2022-08-12T20:09:57.364Z,18.10
2022-08-12T20:12:34.506Z,18.10
2022-08-12T20:15:09.215Z,18.00
2022-08-12T20:17:51.142Z,18.00
2022-08-12T20:20:27.610Z,18.00
2022-08-12T20:23:08.565Z,17.90
2022-08-12T20:25:53.583Z,17.90
2022-08-12T20:28:34.434Z,17.90
2022-08-12T20:31:11.950Z,17.90
2022-08-12T20:33:55.917Z,17.90
2022-08-12T20:36:40.900Z,17.90
2022-08-12T20:39:52.499Z,17.80
2022-08-12T20:42:12.478Z,17.80
2022-08-12T20:44:49.508Z,17.80
2022-08-12T20:47:23.875Z,17.80
2022-08-12T20:50:18.322Z,17.80
2022-08-12T20:53:14.117Z,17.80
2022-08-12T20:55:56.886Z,17.80
2022-08-12T20:58:30.654Z,17.80
2022-08-12T21:01:05.795Z,17.80
2022-08-12T21:03:58.366Z,17.80
2022-08-12T21:06:50.500Z,17.80
2022-08-12T21:09:25.855Z,17.80
2022-08-12T21:12:00.738Z,17.70
2022-08-12T21:14:39.620Z,17.70
2022-08-12T21:18:01.067Z,17.70
2022-08-12T21:20:22.591Z,17.70
2022-08-12T21:22:57.635Z,17.70
2022-08-12T21:25:44.439Z,17.60
2022-08-12T21:28:27.632Z,17.60
2022-08-12T21:32:34.710Z,17.60
2022-08-12T21:34:07.668Z,17.60
2022-08-12T21:36:48.795Z,17.50
2022-08-12T21:39:35.412Z,17.50
2022-08-12T21:42:09.997Z,17.40
2022-08-12T21:45:48.078Z,17.40
2022-08-12T21:47:37.462Z,17.40
2022-08-12T21:50:11.231Z,17.30
2022-08-12T21:52:48.929Z,17.30
2022-08-12T21:55:26.782Z,17.30
2022-08-12T21:58:11.377Z,17.30
2022-08-12T22:00:44.818Z,17.20
2022-08-12T22:04:02.818Z,17.10
2022-08-12T22:06:42.885Z,17.10
2022-08-12T22:09:22.522Z,17.10
2022-08-12T22:12:20.388Z,17.00
2022-08-12T22:14:54.588Z,17.00
2022-08-12T22:17:49.878Z,16.90
2022-08-12T22:20:29.586Z,16.80
2022-08-12T22:23:05.289Z,16.80
2022-08-12T22:25:41.292Z,16.70
2022-08-12T22:28:38.964Z,16.70
2022-08-12T22:31:15.193Z,16.60
2022-08-12T22:33:54.225Z,16.60
2022-08-12T22:36:33.277Z,16.60
2022-08-12T22:39:11.883Z,16.50
2022-08-12T22:42:06.658Z,16.50
2022-08-12T22:44:58.736Z,16.40
2022-08-12T22:47:54.212Z,16.40
2022-08-12T22:50:29.856Z,16.30
2022-08-12T22:53:16.095Z,16.30
2022-08-12T22:55:59.908Z,16.20
2022-08-12T22:58:40.761Z,16.20
2022-08-12T23:01:21.243Z,16.20
2022-08-12T23:03:55.663Z,16.10
2022-08-12T23:06:29.850Z,16.10
2022-08-12T23:09:03.396Z,16.00
2022-08-12T23:11:40.874Z,15.90
2022-08-12T23:14:14.252Z,15.90
2022-08-12T23:16:52.379Z,15.90
2022-08-12T23:19:29.761Z,15.90
2022-08-12T23:22:35.843Z,15.80
2022-08-12T23:25:05.449Z,15.80
2022-08-12T23:28:02.350Z,15.80
2022-08-12T23:30:39.094Z,15.80
2022-08-12T23:33:59.929Z,15.70
2022-08-12T23:36:08.280Z,15.70
2022-08-12T23:38:46.128Z,15.70
2022-08-12T23:41:56.435Z,15.70
2022-08-12T23:44:31.579Z,15.70
2022-08-12T23:47:09.931Z,15.70
2022-08-12T23:49:57.572Z,15.70
2022-08-12T23:52:34.758Z,15.70
2022-08-12T23:55:25.172Z,15.70
2022-08-12T23:58:21.277Z,15.70
